Time;durP1;ratioP1;P1;durP2;ratioP2;P2;SDS_P1;SDS_P2;PMS_P1;PMS_P2;Temp;Humidity;BMP_temperature;BMP_pressure;BME280_temperature;BME280_humidity;BME280_pressure;Samples;Min_cycle;Max_cycle;Signal;HPM_P1;HPM_P2
2021/03/21 00:01:38;;;;;;;11.43;6.25;;;5.30;69.80;;;;;;5029376;28;20024;-80
2021/03/21 00:04:04;;;;;;;12.98;6.75;;;7.60;72.00;;;;;;5031933;28;20403;-81
2021/03/21 00:06:30;;;;;;;11.45;6.82;;;5.20;70.00;;;;;;5023766;28;20041;-78
2021/03/21 00:08:56;;;;;;;12.07;6.55;;;5.10;70.00;;;;;;5025866;28;20105;-77
2021/03/21 00:11:22;;;;;;;13.60;6.78;;;5.10;70.00;;;;;;5033934;28;20052;-78
2021/03/21 00:13:48;;;;;;;12.32;6.53;;;5.10;70.00;;;;;;5028514;28;20077;-79
2021/03/21 00:16:14;;;;;;;9.43;5.93;;;7.10;72.50;;;;;;5031526;28;20034;-80
2021/03/21 00:18:41;;;;;;;9.77;6.18;;;5.00;70.00;;;;;;5026478;28;20057;-78
2021/03/21 00:21:10;;;;;;;12.18;5.97;;;5.10;70.30;;;;;;5024777;28;20125;-77
2021/03/21 00:23:37;;;;;;;11.18;6.10;;;5.10;69.90;;;;;;5024317;28;20057;-80
2021/03/21 00:26:04;;;;;;;11.82;6.40;;;5.10;70.00;;;;;;5026849;28;20049;-79
2021/03/21 00:28:32;;;;;;;10.82;5.70;;;5.00;70.20;;;;;;5023929;28;20037;-79
2021/03/21 00:30:59;;;;;;;9.27;5.75;;;5.10;69.80;;;;;;5019604;28;20033;-78
2021/03/21 00:33:33;;;;;;;14.15;5.88;;;5.60;69.80;;;;;;5024702;28;20078;-81
2021/03/21 00:35:59;;;;;;;10.80;5.47;;;5.50;69.90;;;;;;5024525;28;20046;-78
2021/03/21 00:38:29;;;;;;;9.48;5.55;;;5.10;70.40;;;;;;5024163;28;20037;-80
2021/03/21 00:40:56;;;;;;;11.27;5.32;;;5.10;70.10;;;;;;5024628;28;20048;-78
2021/03/21 00:43:22;;;;;;;10.75;5.50;;;5.10;70.10;;;;;;5018634;28;20162;-78
2021/03/21 00:45:48;;;;;;;9.15;5.18;;;5.10;69.80;;;;;;4999885;28;20042;-77
2021/03/21 00:48:17;;;;;;;10.65;5.65;;;5.10;69.20;;;;;;5020450;28;20042;-77
2021/03/21 00:50:43;;;;;;;11.18;5.50;;;6.30;70.10;;;;;;5021564;28;20067;-77
2021/03/21 00:53:09;;;;;;;11.13;5.65;;;4.90;69.70;;;;;;5020367;28;20072;-77
2021/03/21 00:55:35;;;;;;;8.90;5.30;;;5.10;70.40;;;;;;5023830;28;20042;-79
2021/03/21 00:58:01;;;;;;;14.30;5.70;;;5.10;70.70;;;;;;5016811;28;20036;-78
2021/03/21 01:00:36;;;;;;;11.90;6.43;;;5.00;71.20;;;;;;5018981;28;20033;-78
2021/03/21 01:03:03;;;;;;;10.65;5.97;;;4.90;72.10;;;;;;5021976;28;20175;-79
2021/03/21 01:05:41;;;;;;;12.88;6.80;;;4.90;73.00;;;;;;5013744;28;20077;-78
2021/03/21 01:08:36;;;;;;;10.05;6.32;;;4.90;73.20;;;;;;5017449;28;20526;-78
2021/03/21 01:11:08;;;;;;;11.38;6.72;;;4.90;73.40;;;;;;5017678;28;20037;-79
2021/03/21 01:13:35;;;;;;;13.30;6.32;;;4.90;73.50;;;;;;5019359;28;20495;-80
2021/03/21 01:16:05;;;;;;;9.48;5.95;;;4.80;74.20;;;;;;5018608;28;20036;-79
2021/03/21 01:18:33;;;;;;;10.73;6.20;;;5.30;74.50;;;;;;5017724;28;20495;-80
2021/03/21 01:21:01;;;;;;;11.02;6.45;;;4.80;75.20;;;;;;5023194;28;20412;-81
2021/03/21 01:23:27;;;;;;;11.18;6.57;;;4.80;75.70;;;;;;5023980;28;20033;-80
2021/03/21 01:25:53;;;;;;;13.13;6.45;;;4.80;76.70;;;;;;5029466;28;20027;-80
2021/03/21 01:28:20;;;;;;;12.90;6.70;;;4.80;76.80;;;;;;5027651;28;20037;-79
2021/03/21 01:30:46;;;;;;;14.07;6.75;;;4.80;77.80;;;;;;5024484;28;20045;-79
2021/03/21 01:33:11;;;;;;;16.80;6.40;;;4.80;77.90;;;;;;5022904;28;20112;-79
2021/03/21 01:35:37;;;;;;;10.73;6.45;;;4.90;78.60;;;;;;5005942;28;20064;-77
2021/03/21 01:38:03;;;;;;;12.13;6.50;;;4.80;78.40;;;;;;5024057;28;20076;-78
2021/03/21 01:40:30;;;;;;;10.95;6.53;;;4.80;78.60;;;;;;5013768;28;20048;-78
2021/03/21 01:42:55;;;;;;;12.45;6.10;;;4.80;78.90;;;;;;5003713;28;20045;-77
2021/03/21 01:45:39;;;;;;;10.43;6.88;;;5.50;78.90;;;;;;5035586;28;20053;-79
2021/03/21 01:48:16;;;;;;;12.98;6.97;;;4.80;78.70;;;;;;5037467;28;20069;-78
2021/03/21 01:50:55;;;;;;;12.23;6.20;;;4.80;79.30;;;;;;5038056;28;20064;-78
2021/03/21 01:53:26;;;;;;;12.75;6.22;;;4.90;80.00;;;;;;5020005;28;20507;-78
2021/03/21 01:55:53;;;;;;;12.60;6.57;;;4.90;78.90;;;;;;5019888;28;20041;-79
2021/03/21 01:58:21;;;;;;;10.95;6.10;;;4.90;79.30;;;;;;5025923;28;20045;-78
2021/03/21 02:00:47;;;;;;;13.70;7.30;;;4.80;79.10;;;;;;5031100;28;20057;-79
2021/03/21 02:03:14;;;;;;;15.20;6.85;;;4.70;79.10;;;;;;5028041;28;20117;-79
2021/03/21 02:05:41;;;;;;;12.90;7.35;;;4.60;79.50;;;;;;5022524;28;21353;-82
2021/03/21 02:08:41;;;;;;;13.88;6.55;;;4.60;79.40;;;;;;5045280;28;20679;-76
2021/03/21 02:11:22;;;;;;;10.88;6.40;;;4.50;78.60;;;;;;5020623;28;20032;-79
2021/03/21 02:14:17;;;;;;;12.25;6.70;;;4.50;79.30;;;;;;5035067;28;20033;-78
2021/03/21 02:16:52;;;;;;;11.23;6.50;;;4.40;78.90;;;;;;5023580;28;20045;-81
2021/03/21 02:19:33;;;;;;;13.65;7.22;;;4.40;79.80;;;;;;5018329;28;20033;-79
2021/03/21 02:22:02;;;;;;;12.02;6.50;;;4.40;79.00;;;;;;5016852;28;20691;-77
2021/03/21 02:24:33;;;;;;;13.73;6.88;;;4.40;79.10;;;;;;5020058;28;20025;-78
2021/03/21 02:27:14;;;;;;;;;;;4.40;79.50;;;;;;5022423;28;20765;-78
2021/03/21 02:29:54;;;;;;;11.43;6.35;;;4.40;80.40;;;;;;5022442;28;19962;-78
2021/03/21 02:32:50;;;;;;;12.50;6.78;;;4.40;79.90;;;;;;5031393;28;20645;-79
2021/03/21 02:35:45;;;;;;;12.98;6.75;;;4.40;80.10;;;;;;5026105;28;20104;-77
2021/03/21 02:38:25;;;;;;;14.32;7.05;;;4.40;80.90;;;;;;5019982;28;20037;-82
2021/03/21 02:40:58;;;;;;;12.13;6.68;;;4.40;80.80;;;;;;5024269;28;20022;-78
2021/03/21 02:43:32;;;;;;;11.85;6.40;;;4.40;81.40;;;;;;5023990;28;20045;-81
2021/03/21 02:46:01;;;;;;;12.65;6.53;;;4.50;81.40;;;;;;5038999;28;20045;-78
2021/03/21 02:48:32;;;;;;;12.85;6.38;;;4.50;81.40;;;;;;5022738;28;20161;-77
2021/03/21 02:51:21;;;;;;;12.10;6.30;;;4.60;81.10;;;;;;5022146;28;20052;-79
2021/03/21 02:54:13;;;;;;;11.77;6.28;;;4.60;81.10;;;;;;5028000;28;20037;-77
2021/03/21 02:56:42;;;;;;;11.05;6.30;;;4.60;80.70;;;;;;5029313;28;20371;-78
2021/03/21 02:59:17;;;;;;;11.43;6.35;;;4.60;80.90;;;;;;5027034;28;20041;-80
2021/03/21 03:01:56;;;;;;;14.10;6.32;;;4.60;81.00;;;;;;5027703;28;20053;-77
2021/03/21 03:04:39;;;;;;;12.98;6.28;;;4.60;80.00;;;;;;5028479;28;20033;-80
2021/03/21 03:07:28;;;;;;;12.82;6.22;;;4.60;80.90;;;;;;5025134;28;20044;-78
2021/03/21 03:09:58;;;;;;;12.10;6.25;;;4.70;81.10;;;;;;5020245;28;20034;-79
2021/03/21 03:12:32;;;;;;;9.82;6.13;;;4.70;80.70;;;;;;5028923;28;20248;-80
2021/03/21 03:15:01;;;;;;;11.10;5.90;;;4.70;80.80;;;;;;5024535;28;20038;-78
2021/03/21 03:18:15;;;;;;;10.77;6.38;;;4.70;79.70;;;;;;5026031;28;20502;-77
2021/03/21 03:20:49;;;;;;;11.95;7.00;;;4.70;79.90;;;;;;5020262;28;20038;-79
2021/03/21 03:24:02;;;;;;;14.60;6.90;;;4.60;80.10;;;;;;5025941;28;20536;-79
2021/03/21 03:26:34;;;;;;;11.82;6.55;;;4.60;81.10;;;;;;5013154;28;20045;-80
2021/03/21 03:29:13;;;;;;;13.27;6.45;;;4.50;80.90;;;;;;5023928;28;20044;-79
2021/03/21 03:31:49;;;;;;;12.27;6.55;;;4.60;81.90;;;;;;5027764;28;20029;-78
2021/03/21 03:34:15;;;;;;;12.77;6.45;;;4.50;81.60;;;;;;5020611;28;20099;-81
2021/03/21 03:36:41;;;;;;;13.43;6.68;;;4.50;81.70;;;;;;5022762;28;20041;-80
2021/03/21 03:39:07;;;;;;;11.25;6.53;;;5.40;82.50;;;;;;5021128;28;20439;-79
2021/03/21 03:41:40;;;;;;;10.85;5.95;;;4.60;82.50;;;;;;5023372;28;20491;-78
2021/03/21 03:44:35;;;;;;;10.25;6.00;;;4.60;82.50;;;;;;5024378;28;20033;-79
2021/03/21 03:47:11;;;;;;;11.68;6.70;;;4.70;82.70;;;;;;5024036;28;20597;-78
2021/03/21 03:49:59;;;;;;;10.50;5.88;;;4.70;82.10;;;;;;5022094;28;20042;-78
2021/03/21 03:52:41;;;;;;;10.40;6.03;;;4.70;82.00;;;;;;5038923;28;20038;-79
2021/03/21 03:55:10;;;;;;;10.20;5.57;;;4.70;81.70;;;;;;5023894;28;20148;-80
2021/03/21 03:57:53;;;;;;;9.63;5.90;;;4.70;81.90;;;;;;5024814;28;20033;-79
2021/03/21 04:00:41;;;;;;;12.48;6.57;;;4.70;82.00;;;;;;5024639;28;20033;-78
2021/03/21 04:03:45;;;;;;;10.55;6.50;;;4.70;81.90;;;;;;5023393;28;20060;-79
2021/03/21 04:06:34;;;;;;;10.93;6.18;;;4.60;82.00;;;;;;5022390;28;20032;-78
2021/03/21 04:09:21;;;;;;;10.43;5.82;;;4.60;82.30;;;;;;5023618;28;20041;-78
2021/03/21 04:12:09;;;;;;;11.73;6.50;;;4.60;82.60;;;;;;5025472;28;20034;-80
2021/03/21 04:14:48;;;;;;;10.77;5.97;;;4.50;82.50;;;;;;5022002;28;20037;-79
2021/03/21 04:17:36;;;;;;;10.02;6.65;;;4.40;82.60;;;;;;5026108;28;20560;-80
2021/03/21 04:20:09;;;;;;;12.38;7.45;;;4.40;83.40;;;;;;5037692;28;20033;-79
2021/03/21 04:22:47;;;;;;;11.55;6.97;;;4.40;84.60;;;;;;5025581;28;20056;-80
2021/03/21 04:25:18;;;;;;;12.98;6.82;;;4.30;85.50;;;;;;5022564;28;20065;-79
2021/03/21 04:28:06;;;;;;;16.73;7.03;;;4.30;86.20;;;;;;5022519;28;20534;-81
2021/03/21 04:30:36;;;;;;;11.48;7.25;;;4.20;87.10;;;;;;5025972;28;20055;-80
2021/03/21 04:33:06;;;;;;;12.27;7.15;;;4.20;87.30;;;;;;5024099;28;20045;-78
2021/03/21 04:35:58;;;;;;;14.00;7.38;;;4.10;88.40;;;;;;5026853;28;20040;-78
2021/03/21 04:39:04;;;;;;;14.45;7.82;;;4.10;88.50;;;;;;5028246;28;20048;-79
2021/03/21 04:41:47;;;;;;;12.90;7.60;;;4.10;89.10;;;;;;5017187;28;20418;-78
2021/03/21 04:44:23;;;;;;;13.20;7.57;;;4.00;89.40;;;;;;5026532;28;20038;-77
2021/03/21 04:46:54;;;;;;;13.07;6.93;;;4.00;89.60;;;;;;5023595;28;20397;-80
2021/03/21 04:49:21;;;;;;;13.82;7.15;;;6.60;90.60;;;;;;5022644;28;20040;-78
2021/03/21 04:51:49;;;;;;;16.33;7.43;;;4.00;89.50;;;;;;5021282;28;20089;-78
2021/03/21 04:54:17;;;;;;;14.80;7.28;;;4.00;89.70;;;;;;5021457;28;20033;-79
2021/03/21 04:56:57;;;;;;;14.80;7.55;;;4.00;90.20;;;;;;5024795;28;20067;-79
2021/03/21 04:59:30;;;;;;;12.50;6.60;;;4.00;90.20;;;;;;5026032;28;20408;-80
2021/03/21 05:02:04;;;;;;;12.50;6.65;;;4.00;90.20;;;;;;5027860;28;20034;-80
2021/03/21 05:04:37;;;;;;;14.38;6.55;;;4.00;90.20;;;;;;5025330;28;20259;-79
2021/03/21 05:07:09;;;;;;;13.20;6.90;;;4.00;90.20;;;;;;5021522;28;20514;-81
2021/03/21 05:09:42;;;;;;;12.18;6.32;;;4.00;90.00;;;;;;5036563;28;20045;-78
2021/03/21 05:12:22;;;;;;;11.07;6.43;;;4.00;90.10;;;;;;5021526;28;20107;-82
2021/03/21 05:15:20;;;;;;;12.70;6.65;;;4.00;90.60;;;;;;5026698;28;20065;-80
2021/03/21 05:18:08;;;;;;;11.23;6.13;;;4.00;90.70;;;;;;5008088;28;20056;-80
2021/03/21 05:21:01;;;;;;;11.77;6.57;;;4.00;90.50;;;;;;5024105;28;20061;-81
2021/03/21 05:23:54;;;;;;;11.35;6.70;;;4.00;90.70;;;;;;5022998;28;20084;-79
2021/03/21 05:26:28;;;;;;;12.25;6.80;;;4.10;90.30;;;;;;5026445;28;20094;-79
2021/03/21 05:29:35;;;;;;;10.45;6.40;;;4.00;90.60;;;;;;5023808;28;20518;-80
2021/03/21 05:32:01;;;;;;;11.80;6.53;;;4.00;90.60;;;;;;5023238;28;20033;-78
2021/03/21 05:34:27;;;;;;;11.00;6.15;;;4.00;90.80;;;;;;5008277;28;20041;-77
2021/03/21 05:37:22;;;;;;;11.43;5.88;;;4.10;90.70;;;;;;5020768;28;20060;-79
2021/03/21 05:40:15;;;;;;;11.65;6.13;;;4.10;91.00;;;;;;5021596;28;20037;-78
2021/03/21 05:43:05;;;;;;;13.30;6.38;;;4.10;91.10;;;;;;5023748;28;20087;-82
2021/03/21 05:45:40;;;;;;;12.38;6.30;;;4.20;91.10;;;;;;5026326;28;20388;-78
2021/03/21 05:48:21;;;;;;;9.77;6.45;;;4.20;91.20;;;;;;5031881;28;20586;-80
2021/03/21 05:51:14;;;;;;;10.98;5.90;;;4.20;91.00;;;;;;5024819;28;20502;-80
2021/03/21 05:54:10;;;;;;;21.35;6.75;;;4.30;91.10;;;;;;5023122;28;20482;-79
2021/03/21 05:56:58;;;;;;;14.95;6.45;;;4.30;91.00;;;;;;5025764;28;20072;-79
2021/03/21 05:59:35;;;;;;;9.77;6.10;;;4.20;91.00;;;;;;5027890;28;20025;-79
2021/03/21 06:02:29;;;;;;;11.15;5.63;;;4.30;91.10;;;;;;5043313;28;20033;-80
2021/03/21 06:05:20;;;;;;;9.32;5.57;;;4.30;91.00;;;;;;5011343;28;20623;-80
2021/03/21 06:08:12;;;;;;;10.93;5.78;;;4.20;91.30;;;;;;5030666;28;20041;-79
2021/03/21 06:11:05;;;;;;;11.02;5.68;;;4.20;91.40;;;;;;5028918;28;20076;-82
2021/03/21 06:13:45;;;;;;;11.50;6.22;;;4.20;91.10;;;;;;5007141;28;20100;-80
2021/03/21 06:16:26;;;;;;;9.77;6.05;;;4.20;91.60;;;;;;5029246;28;20120;-81
2021/03/21 06:19:10;;;;;;;10.98;5.97;;;4.20;91.50;;;;;;5023576;28;20041;-78
2021/03/21 06:22:19;;;;;;;11.18;6.32;;;4.20;91.40;;;;;;5028008;28;20029;-81
2021/03/21 06:25:09;;;;;;;13.48;6.90;;;4.20;91.80;;;;;;5028259;28;20060;-79
2021/03/21 06:28:12;;;;;;;11.73;6.07;;;4.30;91.50;;;;;;5025684;28;20047;-77
2021/03/21 06:31:00;;;;;;;13.25;7.57;;;4.30;91.70;;;;;;5028900;28;20164;-80
2021/03/21 06:33:49;;;;;;;12.00;7.07;;;4.30;91.40;;;;;;5036959;28;20051;-79
2021/03/21 06:36:34;;;;;;;10.65;6.20;;;4.30;91.70;;;;;;5030522;28;20037;-79
2021/03/21 06:39:44;;;;;;;12.30;6.75;;;4.30;91.90;;;;;;5032483;28;20061;-79
2021/03/21 06:42:52;;;;;;;10.57;7.10;;;4.30;92.30;;;;;;5033867;28;20061;-81
2021/03/21 06:45:18;;;;;;;13.63;7.45;;;4.30;92.10;;;;;;5029117;28;20126;-78
2021/03/21 06:48:01;;;;;;;12.23;7.07;;;4.30;92.20;;;;;;5031283;28;20053;-79
2021/03/21 06:50:48;;;;;;;15.52;7.80;;;4.40;92.40;;;;;;5035413;28;20029;-81
2021/03/21 06:53:29;;;;;;;12.73;7.28;;;4.40;92.40;;;;;;5029471;28;20034;-79
2021/03/21 06:56:16;;;;;;;14.52;8.02;;;4.50;92.40;;;;;;5028786;28;20033;-82
2021/03/21 06:59:07;;;;;;;14.75;8.30;;;4.60;91.70;;;;;;5014357;28;20029;-80
2021/03/21 07:01:41;;;;;;;15.95;7.90;;;4.70;91.90;;;;;;5031164;28;20048;-80
2021/03/21 07:04:15;;;;;;;12.07;7.88;;;4.70;92.00;;;;;;5033565;28;20028;-78
2021/03/21 07:07:11;;;;;;;14.60;7.93;;;4.80;92.40;;;;;;5030539;28;20033;-80
2021/03/21 07:09:42;;;;;;;18.85;8.55;;;4.80;92.70;;;;;;5032512;28;20097;-78
2021/03/21 07:12:40;;;;;;;14.05;8.43;;;4.90;93.00;;;;;;5032962;28;20032;-77
2021/03/21 07:15:18;;;;;;;12.98;8.13;;;5.00;92.90;;;;;;5040853;28;20048;-78
2021/03/21 07:18:27;;;;;;;14.23;8.93;;;5.00;92.90;;;;;;5044959;28;20117;-80
2021/03/21 07:21:34;;;;;;;14.38;8.38;;;5.00;92.80;;;;;;5024587;28;20057;-79
2021/03/21 07:24:36;;;;;;;13.98;8.57;;;5.20;92.80;;;;;;5030833;28;20060;-80
2021/03/21 07:27:11;;;;;;;14.60;7.57;;;5.20;92.80;;;;;;5033458;28;20403;-78
2021/03/21 07:29:46;;;;;;;13.40;8.35;;;5.30;92.70;;;;;;5033034;28;20052;-77
2021/03/21 07:32:37;;;;;;;15.15;9.10;;;5.30;92.90;;;;;;5031574;28;20163;-78
2021/03/21 07:35:30;;;;;;;14.60;9.35;;;5.40;93.10;;;;;;5045365;28;20025;-77
2021/03/21 07:38:15;;;;;;;14.88;8.55;;;5.50;92.90;;;;;;5029193;28;20034;-79
2021/03/21 07:40:56;;;;;;;14.48;8.95;;;5.60;92.70;;;;;;5032766;28;20037;-81
2021/03/21 07:43:37;;;;;;;15.50;9.65;;;5.60;92.80;;;;;;5031277;28;20057;-82
2021/03/21 07:46:19;;;;;;;18.42;10.18;;;5.70;92.80;;;;;;5027404;28;20100;-81
2021/03/21 07:49:14;;;;;;;14.98;9.80;;;5.70;92.90;;;;;;5029406;28;20032;-80
2021/03/21 07:52:17;;;;;;;16.85;10.82;;;5.70;93.20;;;;;;5021565;28;20498;-81
2021/03/21 07:55:01;;;;;;;17.55;10.95;;;5.80;93.20;;;;;;5024007;28;20033;-81
2021/03/21 07:57:45;;;;;;;17.13;10.77;;;5.80;93.40;;;;;;5026959;28;20034;-83
2021/03/21 08:00:13;;;;;;;17.40;11.32;;;5.90;93.60;;;;;;5012256;28;20082;-81
2021/03/21 08:02:39;;;;;;;19.02;11.90;;;5.90;93.50;;;;;;5020603;28;20064;-83
2021/03/21 08:05:19;;;;;;;20.27;12.13;;;5.90;93.70;;;;;;5021439;28;20061;-83
2021/03/21 08:07:48;;;;;;;22.67;12.57;;;6.00;93.90;;;;;;5022744;28;20391;-83
2021/03/21 08:10:34;;;;;;;18.73;11.45;;;6.00;94.00;;;;;;5018769;28;20061;-82
2021/03/21 08:13:12;;;;;;;23.02;12.05;;;6.10;94.10;;;;;;5022524;28;20175;-83
2021/03/21 08:15:38;;;;;;;22.05;13.88;;;6.00;94.40;;;;;;5018006;28;20478;-81
2021/03/21 08:18:09;;;;;;;24.10;12.65;;;6.10;94.90;;;;;;5024569;28;20042;-79
2021/03/21 08:20:39;;;;;;;21.48;13.70;;;6.10;94.80;;;;;;5035245;28;20478;-79
2021/03/21 08:23:18;;;;;;;19.75;12.27;;;6.10;95.50;;;;;;5023513;28;20037;-79
2021/03/21 08:25:44;;;;;;;20.08;12.93;;;6.20;96.10;;;;;;5026379;28;20048;-81
2021/03/21 08:28:15;;;;;;;19.92;12.27;;;6.20;96.70;;;;;;5022662;28;20168;-81
2021/03/21 08:30:52;;;;;;;17.27;11.43;;;6.30;96.90;;;;;;5028119;28;20072;-82
2021/03/21 08:33:26;;;;;;;18.33;11.00;;;6.40;97.20;;;;;;5032493;28;20532;-77
2021/03/21 08:36:20;;;;;;;18.13;12.05;;;6.50;97.00;;;;;;5031264;28;20060;-79
2021/03/21 08:39:00;;;;;;;19.20;11.75;;;6.50;97.30;;;;;;5025073;28;20053;-78
2021/03/21 08:41:28;;;;;;;21.83;13.00;;;6.50;97.60;;;;;;5030100;28;20384;-80
2021/03/21 08:44:03;;;;;;;21.02;12.90;;;6.40;98.10;;;;;;5035383;28;20051;-80
2021/03/21 08:46:30;;;;;;;16.85;11.48;;;6.40;98.60;;;;;;5029359;28;20061;-82
2021/03/21 08:49:19;;;;;;;18.02;10.52;;;6.50;98.60;;;;;;5031716;28;20033;-81
2021/03/21 08:51:46;;;;;;;19.52;12.18;;;6.50;98.40;;;;;;5029787;28;20124;-80
2021/03/21 08:54:18;;;;;;;16.77;10.32;;;6.50;99.10;;;;;;5021628;28;20029;-81
2021/03/21 08:56:56;;;;;;;19.10;10.70;;;6.50;99.00;;;;;;5017110;28;20087;-81
2021/03/21 08:59:26;;;;;;;17.30;11.43;;;6.40;99.30;;;;;;5019810;28;20037;-80
2021/03/21 09:02:07;;;;;;;19.15;11.23;;;6.40;99.60;;;;;;5019124;28;20491;-83
2021/03/21 09:04:35;;;;;;;17.30;10.98;;;6.30;99.80;;;;;;5021455;28;20076;-80
2021/03/21 09:07:17;;;;;;;16.92;10.00;;;6.30;99.90;;;;;;5020730;28;20048;-80
2021/03/21 09:09:43;;;;;;;16.60;10.68;;;;;;;;;;5021398;28;20069;-81
2021/03/21 09:12:28;;;;;;;18.85;10.70;;;6.20;99.90;;;;;;5018964;28;20042;-83
2021/03/21 09:15:14;;;;;;;18.08;9.65;;;6.10;99.90;;;;;;5017550;28;20067;-80
2021/03/21 09:17:40;;;;;;;16.83;10.73;;;;;;;;;;5021492;28;20695;-83
2021/03/21 09:20:07;;;;;;;19.02;10.57;;;;;;;;;;5015647;28;20033;-80
2021/03/21 09:22:39;;;;;;;17.67;10.90;;;;;;;;;;5025610;28;20567;-83
2021/03/21 09:25:19;;;;;;;18.45;11.10;;;6.40;99.90;;;;;;5019411;28;20033;-81
2021/03/21 09:27:46;;;;;;;18.10;10.40;;;;;;;;;;5020360;28;20444;-81
2021/03/21 09:30:19;;;;;;;17.42;10.57;;;6.50;99.90;;;;;;5028035;28;20032;-82
2021/03/21 09:32:49;;;;;;;17.15;10.25;;;6.50;99.90;;;;;;5030661;28;20491;-79
2021/03/21 09:35:38;;;;;;;18.33;11.45;;;6.60;99.90;;;;;;5017099;28;20479;-82
2021/03/21 09:38:09;;;;;;;17.77;10.50;;;;;;;;;;5014953;28;20044;-83
2021/03/21 09:40:38;;;;;;;17.25;10.50;;;6.60;99.90;;;;;;5029830;28;20034;-80
2021/03/21 09:43:11;;;;;;;19.77;10.98;;;6.60;99.90;;;;;;5024502;28;20499;-79
2021/03/21 09:45:37;;;;;;;17.83;10.73;;;;;;;;;;5026028;28;20048;-84
2021/03/21 09:48:05;;;;;;;17.83;11.45;;;;;;;;;;5034554;28;20483;-81
2021/03/21 09:50:40;;;;;;;19.95;11.77;;;;;;;;;;5034417;28;20037;-80
2021/03/21 09:53:25;;;;;;;19.27;11.10;;;;;;;;;;5034261;28;20032;-84
2021/03/21 09:55:53;;;;;;;17.52;11.13;;;6.50;99.90;;;;;;5030436;28;20041;-84
2021/03/21 09:58:33;;;;;;;18.13;11.30;;;;;;;;;;5035627;28;20064;-83
2021/03/21 10:01:03;;;;;;;18.55;11.48;;;;;;;;;;5027051;28;20391;-82
2021/03/21 10:03:36;;;;;;;21.27;13.17;;;;;;;;;;5032945;28;20029;-82
2021/03/21 10:06:02;;;;;;;19.90;11.73;;;;;;;;;;5040257;28;20065;-83
2021/03/21 10:08:45;;;;;;;17.77;11.65;;;;;;;;;;5037469;28;20569;-82
2021/03/21 10:11:20;;;;;;;19.63;12.43;;;7.10;99.90;;;;;;5041149;28;20065;-84
2021/03/21 10:13:46;;;;;;;20.85;12.50;;;;;;;;;;5031407;28;20052;-82
2021/03/21 10:16:24;;;;;;;19.60;12.50;;;;;;;;;;5029208;28;20185;-82
2021/03/21 10:19:05;;;;;;;20.13;13.07;;;7.40;99.90;;;;;;5025585;28;20050;-80
2021/03/21 10:21:37;;;;;;;19.42;12.00;;;7.50;99.90;;;;;;5028052;28;20029;-80
2021/03/21 10:24:12;;;;;;;20.95;12.00;;;7.60;99.90;;;;;;5032510;28;20574;-79
2021/03/21 10:27:23;;;;;;;19.83;11.63;;;7.70;99.90;;;;;;5024317;28;20091;-83
2021/03/21 10:30:01;;;;;;;;;;;7.80;99.90;;;;;;5026690;28;20041;-82
2021/03/21 10:32:30;;;;;;;17.58;10.50;;;7.80;99.90;;;;;;5043567;28;19995;-83
2021/03/21 10:34:57;;;;;;;16.73;10.32;;;7.80;99.90;;;;;;5025099;28;20136;-80
2021/03/21 10:37:41;;;;;;;17.10;10.05;;;7.90;99.90;;;;;;5024003;28;20037;-79
2021/03/21 10:40:34;;;;;;;15.93;9.77;;;7.90;99.90;;;;;;5021390;28;20037;-83
2021/03/21 10:43:01;;;;;;;14.43;8.85;;;8.10;99.60;;;;;;5023779;28;20113;-78
2021/03/21 10:45:35;;;;;;;14.70;8.95;;;8.20;99.20;;;;;;5029728;28;20033;-79
2021/03/21 10:48:09;;;;;;;13.40;8.05;;;8.40;98.70;;;;;;5024115;28;20403;-81
2021/03/21 10:50:52;;;;;;;15.50;8.85;;;8.40;98.50;;;;;;5026890;28;20042;-80
2021/03/21 10:53:30;;;;;;;13.60;7.85;;;9.00;97.10;;;;;;5033490;28;20149;-82
2021/03/21 10:56:19;;;;;;;12.23;7.38;;;9.00;97.00;;;;;;5037152;28;20033;-80
2021/03/21 10:59:13;;;;;;;12.13;7.50;;;9.20;96.40;;;;;;5042453;28;20064;-81
2021/03/21 11:01:44;;;;;;;12.27;8.00;;;9.40;95.80;;;;;;5022834;28;20037;-82
2021/03/21 11:04:26;;;;;;;12.35;7.18;;;9.60;94.70;;;;;;5037989;28;20034;-81
2021/03/21 11:07:19;;;;;;;11.80;7.47;;;10.60;94.70;;;;;;5022676;28;20087;-83
2021/03/21 11:10:06;;;;;;;13.10;7.60;;;10.00;93.60;;;;;;5024054;28;20603;-81
2021/03/21 11:12:39;;;;;;;12.48;7.40;;;10.20;93.20;;;;;;5023634;28;20021;-79
2021/03/21 11:15:31;;;;;;;12.63;7.68;;;10.30;93.50;;;;;;5023161;28;20037;-82
2021/03/21 11:18:14;;;;;;;12.60;7.53;;;10.40;92.70;;;;;;5016663;28;20126;-80
2021/03/21 11:20:40;;;;;;;14.27;8.00;;;;;;;;;;5021022;28;20063;-81
2021/03/21 11:23:17;;;;;;;11.85;7.20;;;10.10;92.80;;;;;;5038970;28;20140;-80
2021/03/21 11:25:43;;;;;;;13.43;7.70;;;;;;;;;;5013857;28;20132;-82
2021/03/21 11:28:14;;;;;;;13.35;7.53;;;;;;;;;;5025019;28;20575;-81
2021/03/21 11:30:50;;;;;;;12.57;7.72;;;10.00;92.90;;;;;;5027658;28;20045;-81
2021/03/21 11:33:29;;;;;;;12.77;7.47;;;10.00;93.30;;;;;;5028410;28;20045;-81
2021/03/21 11:36:23;;;;;;;13.30;8.43;;;10.10;93.50;;;;;;5026237;28;20045;-79
2021/03/21 11:38:50;;;;;;;17.85;9.18;;;10.00;93.30;;;;;;5039683;28;20040;-80
2021/03/21 11:41:37;;;;;;;13.00;7.72;;;10.00;93.10;;;;;;5028697;28;20025;-79
2021/03/21 11:44:20;;;;;;;18.70;10.20;;;12.80;94.00;;;;;;5024533;28;20033;-82
2021/03/21 11:46:46;;;;;;;12.65;7.70;;;10.00;93.50;;;;;;5026689;28;20045;-82
2021/03/21 11:49:13;;;;;;;16.50;9.88;;;;;;;;;;5022963;28;20507;-82
2021/03/21 11:51:41;;;;;;;12.65;8.13;;;9.80;94.00;;;;;;5027619;28;20605;-84
2021/03/21 11:54:11;;;;;;;19.60;12.18;;;9.60;94.50;;;;;;5023681;28;20052;-83
2021/03/21 11:56:52;;;;;;;15.48;9.70;;;9.60;94.50;;;;;;5030373;28;20125;-80
2021/03/21 11:59:21;;;;;;;13.80;8.95;;;9.60;94.80;;;;;;5027374;28;20076;-79
2021/03/21 12:01:55;;;;;;;15.27;9.20;;;9.50;94.80;;;;;;5027031;28;20037;-81
2021/03/21 12:04:38;;;;;;;15.15;8.65;;;9.70;94.80;;;;;;5024410;28;20182;-79
2021/03/21 12:07:05;;;;;;;12.70;8.30;;;9.80;93.70;;;;;;5023647;28;20037;-81
2021/03/21 12:09:36;;;;;;;14.57;8.02;;;9.80;93.70;;;;;;5018828;28;20042;-80
2021/03/21 12:12:39;;;;;;;13.95;7.75;;;9.80;94.00;;;;;;5019804;28;20123;-82
2021/03/21 12:15:27;;;;;;;11.18;7.20;;;9.80;94.20;;;;;;5022720;28;20038;-80
2021/03/21 12:18:17;;;;;;;13.23;7.55;;;9.90;94.10;;;;;;5016561;28;20034;-81
2021/03/21 12:20:54;;;;;;;9.07;5.55;;;9.90;94.00;;;;;;5022138;28;20037;-80
2021/03/21 12:23:30;;;;;;;9.27;4.75;;;9.90;92.60;;;;;;5023815;28;20495;-77
2021/03/21 12:26:15;;;;;;;8.65;5.07;;;9.90;93.10;;;;;;5022006;28;20047;-81
2021/03/21 12:28:52;;;;;;;10.50;6.07;;;10.10;91.40;;;;;;5033043;28;20037;-79
2021/03/21 12:31:29;;;;;;;9.70;5.22;;;10.20;91.70;;;;;;5022011;28;20088;-79
2021/03/21 12:33:55;;;;;;;10.07;4.63;;;10.50;91.00;;;;;;5023254;28;20631;-77
2021/03/21 12:36:26;;;;;;;6.85;4.13;;;10.50;90.40;;;;;;5027203;28;20146;-79
2021/03/21 12:38:58;;;;;;;;;;;10.60;89.70;;;;;;5031140;28;20036;-79
2021/03/21 12:41:40;;;;;;;6.28;3.90;;;10.80;89.00;;;;;;5020712;28;19909;-80
2021/03/21 12:44:25;;;;;;;8.05;4.10;;;10.90;86.40;;;;;;5020182;28;20109;-81
2021/03/21 12:47:17;;;;;;;8.35;4.70;;;10.80;85.70;;;;;;5017086;28;20084;-79
2021/03/21 12:49:52;;;;;;;7.93;4.20;;;10.80;86.10;;;;;;5025016;28;20057;-80
2021/03/21 12:52:25;;;;;;;7.03;4.22;;;10.70;89.30;;;;;;5009938;28;20041;-81
2021/03/21 12:54:52;;;;;;;6.38;3.97;;;10.70;87.60;;;;;;5021312;28;20364;-77
2021/03/21 12:57:18;;;;;;;7.95;4.32;;;;;;;;;;5020540;28;20217;-82
2021/03/21 12:59:50;;;;;;;7.38;4.40;;;10.60;88.00;;;;;;5021225;28;20125;-79
2021/03/21 13:02:31;;;;;;;7.38;4.47;;;10.50;87.70;;;;;;5019685;28;20487;-79
2021/03/21 13:04:59;;;;;;;8.07;4.90;;;10.50;89.20;;;;;;5004563;28;20080;-81
2021/03/21 13:07:26;;;;;;;7.60;4.68;;;10.40;89.90;;;;;;5021510;28;20049;-83
2021/03/21 13:09:53;;;;;;;8.13;4.90;;;10.20;89.80;;;;;;5019913;28;20036;-80
2021/03/21 13:12:19;;;;;;;8.48;4.68;;;10.20;90.40;;;;;;5020842;28;20037;-79
2021/03/21 13:14:46;;;;;;;7.53;4.85;;;10.30;90.40;;;;;;5022477;28;20494;-80
2021/03/21 13:17:11;;;;;;;8.43;4.97;;;10.30;90.00;;;;;;5032571;28;20045;-78
2021/03/21 13:19:37;;;;;;;7.43;4.60;;;10.40;88.70;;;;;;5030120;28;20026;-78
2021/03/21 13:22:04;;;;;;;7.53;4.68;;;10.30;89.50;;;;;;5028167;28;20143;-78
2021/03/21 13:24:29;;;;;;;7.07;4.40;;;10.20;89.80;;;;;;5024934;28;20045;-79
2021/03/21 13:26:55;;;;;;;7.43;4.10;;;10.20;90.10;;;;;;5010470;28;20057;-84
2021/03/21 13:29:21;;;;;;;6.55;3.75;;;10.10;89.30;;;;;;5025565;28;20042;-80
2021/03/21 13:31:46;;;;;;;7.78;4.30;;;10.30;87.90;;;;;;5026749;28;20073;-78
2021/03/21 13:34:13;;;;;;;7.10;4.30;;;10.50;86.00;;;;;;5023646;28;20052;-81
2021/03/21 13:36:39;;;;;;;7.28;3.72;;;10.40;86.00;;;;;;5020045;28;20057;-80
2021/03/21 13:39:05;;;;;;;6.80;3.90;;;10.50;86.20;;;;;;5022837;28;20033;-83
2021/03/21 13:41:31;;;;;;;6.05;3.88;;;10.60;86.40;;;;;;5025616;28;20034;-82
2021/03/21 13:43:59;;;;;;;7.65;3.83;;;10.60;86.40;;;;;;5026501;28;20175;-82
2021/03/21 13:46:25;;;;;;;9.48;4.15;;;10.80;85.50;;;;;;5002993;28;20054;-80